Laida — EAVE — position and weather

sailwx.info

Track history (hours):
 
Tides and Currents Weather Stations Pressure Air Temp Water Temp Dewpoint Dewpoint Depression Visibility Wind Speed Wind Dir Waves Ship Positions

Laida

Last reported at 2016-May-05 10:33 UTC. Time now 2016-May-05 14:19 UTC.
Position N 46°12' W 003°51'.

Length 100 m; draft 5.7 m.

Type: Cargo ship. MMSI: 224509000.

Date/timePositionNaut miles runAvg speedWind from/ knotsBaromVisibWave heightAir tempDewpointWater temp
2016-May-05 10:33N 46°12' W 003°51'10 9.4
2016-May-05 09:32N 46°21' W 003°59'6811.2
2016-May-05 03:30N 47°18' W 004°51'1211.8
2016-May-05 02:31N 47°28' W 004°59'1111.7
2016-May-05 01:33N 47°38' W 005°08'1111.1
2016-May-05 00:33N 47°47' W 005°17'1010.3
2016-May-04 23:33N 47°56' W 005°24'1010.4
2016-May-04 22:33N 48°07' W 005°25'2511.9
2016-May-04 20:29N 48°31' W 005°24'1313.6
2016-May-04 19:33N 48°41' W 005°10'1413.5
2016-May-04 18:30N 48°50' W 004°54'7810.8
2016-May-04 11:16N 49°42' W 003°25'912.8
2016-May-04 10:33N 49°48' W 003°14'1412.8
2016-May-04 09:27N 49°57' W 002°57'2311.3
2016-May-04 07:26N 50°03' W 002°23'8 9.4
2016-May-04 06:32N 50°05' W 002°10'8 8.4
2016-May-04 05:33N 50°07' W 001°58'8 8.1
2016-May-04 04:33N 50°08' W 001°45'12 9.4
2016-May-04 03:19N 50°10' W 001°27'911.4
2016-May-04 02:32N 50°12' W 001°14'1212.7
2016-May-04 01:33N 50°14' W 000°54'1313.0
2016-May-04 00:33N 50°15' W 000°34'1212.4
2016-May-03 23:33N 50°08' W 000°18'1312.8
2016-May-03 22:33N 50°06' E 000°02'1312.2
2016-May-03 21:30N 50°03' E 000°22'  
2016-Apr-30 11:09N 50°53' E 001°15'914.3
2016-Apr-30 10:32N 50°59' E 001°24'1313.4
2016-Apr-30 09:33N 51°09' E 001°38'1212.0
2016-Apr-30 08:33N 51°18' E 001°50'1111.1
2016-Apr-30 07:33N 51°28' E 001°59'1310.8
2016-Apr-30 06:22N 51°37' E 002°13'6310.7
2016-Apr-30 00:32N 52°03' E 003°45'1010.2
2016-Apr-29 23:33N 52°00' E 004°01'1313.4
2016-Apr-29 22:33N 51°54' E 004°20'4 4.1
2016-Apr-29 21:32N 51°54' E 004°27'0 0.0
2016-Apr-29 20:31N 51°54' E 004°27'0 0.0
2016-Apr-29 19:32N 51°54' E 004°27'0 0.0
2016-Apr-29 18:32N 51°54' E 004°27'0 0.0
2016-Apr-29 17:23N 51°54' E 004°27'0 0.0
2016-Apr-29 16:26N 51°54' E 004°27'0 0.0
2016-Apr-29 15:32N 51°54' E 004°27'0 0.0
2016-Apr-29 14:29N 51°54' E 004°27'0 0.0
2016-Apr-29 13:32N 51°54' E 004°27'0 0.0
2016-Apr-29 12:17N 51°54' E 004°27'0 0.0
2016-Apr-29 11:32N 51°54' E 004°27'0 0.0
2016-Apr-29 10:29N 51°54' E 004°27'0 0.0
2016-Apr-29 09:29N 51°54' E 004°27'0 0.0
2016-Apr-29 08:29N 51°54' E 004°27'0 0.0
2016-Apr-29 07:31N 51°54' E 004°27'0 0.0
2016-Apr-29 05:32N 51°54' E 004°27'0 0.0
2016-Apr-29 04:23N 51°54' E 004°27'0 0.0
2016-Apr-29 03:32N 51°54' E 004°27'0 0.0
2016-Apr-29 02:26N 51°54' E 004°27'0 0.0
2016-Apr-29 01:20N 51°54' E 004°27'0 0.0
2016-Apr-29 00:25N 51°54' E 004°27'0 0.0
2016-Apr-28 23:29N 51°54' E 004°27'0 0.0
2016-Apr-28 22:32N 51°54' E 004°27'0 0.0
2016-Apr-28 21:32N 51°54' E 004°27'0 0.0
2016-Apr-28 20:32N 51°54' E 004°27'0 0.0
2016-Apr-28 19:32N 51°54' E 004°27'0 0.0
2016-Apr-28 18:29N 51°54' E 004°27'0 0.0
2016-Apr-28 17:29N 51°54' E 004°27'0 0.0
2016-Apr-28 16:26N 51°54' E 004°27'0 0.0
2016-Apr-28 15:33N 51°54' E 004°27'0 0.0
2016-Apr-28 14:33N 51°54' E 004°27'0 0.0
2016-Apr-28 13:32N 51°54' E 004°27'5 5.0
2016-Apr-28 12:33N 51°54' E 004°19'8 8.4
2016-Apr-28 11:33N 51°58' E 004°07'9 9.5
2016-Apr-28 10:33N 51°60' E 003°52'6510.8
2016-Apr-28 04:30N 51°31' E 002°17'1212.3
2016-Apr-28 03:33N 51°21' E 002°07'1111.2
2016-Apr-28 02:33N 51°12' E 001°57'1212.4
2016-Apr-28 01:33N 51°05' E 001°41'1311.7
2016-Apr-28 00:27N 50°56' E 001°27'65 9.5
2016-Apr-27 17:33N 50°20' E 000°00'1010.0
2016-Apr-27 16:33N 50°18' W 000°15'  
Track history (hours):
 
Tides and Currents Weather Stations Pressure Air Temp Water Temp Dewpoint Dewpoint Depression Visibility Wind Speed Wind Dir Waves Ship Positions

Laida

Last reported at 2016-May-05 10:33 UTC. Time now 2016-May-05 14:19 UTC.
Position N 46°12' W 003°51'.

Length 100 m; draft 5.7 m.

Type: Cargo ship. MMSI: 224509000.

Date/timePositionNaut miles runAvg speedWind from/ knotsBaromVisibWave heightAir tempDewpointWater temp
2016-May-05 10:33N 46°12' W 003°51'10 9.4
2016-May-05 09:32N 46°21' W 003°59'6811.2
2016-May-05 03:30N 47°18' W 004°51'1211.8
2016-May-05 02:31N 47°28' W 004°59'1111.7
2016-May-05 01:33N 47°38' W 005°08'1111.1
2016-May-05 00:33N 47°47' W 005°17'1010.3
2016-May-04 23:33N 47°56' W 005°24'1010.4
2016-May-04 22:33N 48°07' W 005°25'2511.9
2016-May-04 20:29N 48°31' W 005°24'1313.6
2016-May-04 19:33N 48°41' W 005°10'1413.5
2016-May-04 18:30N 48°50' W 004°54'7810.8
2016-May-04 11:16N 49°42' W 003°25'912.8
2016-May-04 10:33N 49°48' W 003°14'1412.8
2016-May-04 09:27N 49°57' W 002°57'2311.3
2016-May-04 07:26N 50°03' W 002°23'8 9.4
2016-May-04 06:32N 50°05' W 002°10'8 8.4
2016-May-04 05:33N 50°07' W 001°58'8 8.1
2016-May-04 04:33N 50°08' W 001°45'12 9.4
2016-May-04 03:19N 50°10' W 001°27'911.4
2016-May-04 02:32N 50°12' W 001°14'1212.7
2016-May-04 01:33N 50°14' W 000°54'1313.0
2016-May-04 00:33N 50°15' W 000°34'1212.4
2016-May-03 23:33N 50°08' W 000°18'1312.8
2016-May-03 22:33N 50°06' E 000°02'1312.2
2016-May-03 21:30N 50°03' E 000°22'  
2016-Apr-30 11:09N 50°53' E 001°15'914.3
2016-Apr-30 10:32N 50°59' E 001°24'1313.4
2016-Apr-30 09:33N 51°09' E 001°38'1212.0
2016-Apr-30 08:33N 51°18' E 001°50'1111.1
2016-Apr-30 07:33N 51°28' E 001°59'1310.8
2016-Apr-30 06:22N 51°37' E 002°13'6310.7
2016-Apr-30 00:32N 52°03' E 003°45'1010.2
2016-Apr-29 23:33N 52°00' E 004°01'1313.4
2016-Apr-29 22:33N 51°54' E 004°20'4 4.1
2016-Apr-29 21:32N 51°54' E 004°27'0 0.0
2016-Apr-29 20:31N 51°54' E 004°27'0 0.0
2016-Apr-29 19:32N 51°54' E 004°27'0 0.0
2016-Apr-29 18:32N 51°54' E 004°27'0 0.0
2016-Apr-29 17:23N 51°54' E 004°27'0 0.0
2016-Apr-29 16:26N 51°54' E 004°27'0 0.0
2016-Apr-29 15:32N 51°54' E 004°27'0 0.0
2016-Apr-29 14:29N 51°54' E 004°27'0 0.0
2016-Apr-29 13:32N 51°54' E 004°27'0 0.0
2016-Apr-29 12:17N 51°54' E 004°27'0 0.0
2016-Apr-29 11:32N 51°54' E 004°27'0 0.0
2016-Apr-29 10:29N 51°54' E 004°27'0 0.0
2016-Apr-29 09:29N 51°54' E 004°27'0 0.0
2016-Apr-29 08:29N 51°54' E 004°27'0 0.0
2016-Apr-29 07:31N 51°54' E 004°27'0 0.0
2016-Apr-29 05:32N 51°54' E 004°27'0 0.0
2016-Apr-29 04:23N 51°54' E 004°27'0 0.0
2016-Apr-29 03:32N 51°54' E 004°27'0 0.0
2016-Apr-29 02:26N 51°54' E 004°27'0 0.0
2016-Apr-29 01:20N 51°54' E 004°27'0 0.0
2016-Apr-29 00:25N 51°54' E 004°27'0 0.0
2016-Apr-28 23:29N 51°54' E 004°27'0 0.0
2016-Apr-28 22:32N 51°54' E 004°27'0 0.0
2016-Apr-28 21:32N 51°54' E 004°27'0 0.0
2016-Apr-28 20:32N 51°54' E 004°27'0 0.0
2016-Apr-28 19:32N 51°54' E 004°27'0 0.0
2016-Apr-28 18:29N 51°54' E 004°27'0 0.0
2016-Apr-28 17:29N 51°54' E 004°27'0 0.0
2016-Apr-28 16:26N 51°54' E 004°27'0 0.0
2016-Apr-28 15:33N 51°54' E 004°27'0 0.0
2016-Apr-28 14:33N 51°54' E 004°27'0 0.0
2016-Apr-28 13:32N 51°54' E 004°27'5 5.0
2016-Apr-28 12:33N 51°54' E 004°19'8 8.4
2016-Apr-28 11:33N 51°58' E 004°07'9 9.5
2016-Apr-28 10:33N 51°60' E 003°52'6510.8
2016-Apr-28 04:30N 51°31' E 002°17'1212.3
2016-Apr-28 03:33N 51°21' E 002°07'1111.2
2016-Apr-28 02:33N 51°12' E 001°57'1212.4
2016-Apr-28 01:33N 51°05' E 001°41'1311.7
2016-Apr-28 00:27N 50°56' E 001°27'65 9.5
2016-Apr-27 17:33N 50°20' E 000°00'1010.0
2016-Apr-27 16:33N 50°18' W 000°15'  

Dump ship's entire track history